Time;durP1;ratioP1;P1;durP2;ratioP2;P2;SDS_P1;SDS_P2;PMS_P1;PMS_P2;Temp;Humidity;BMP_temperature;BMP_pressure;BME280_temperature;BME280_humidity;BME280_pressure;Samples;Min_cycle;Max_cycle;Signal;HPM_P1;HPM_P2
2022/01/28 00:01:49;;;;;;;0.20;0.20;;;;;;;4.75;100.00;99613.06;4823787;29;20225;-80
2022/01/28 00:04:17;;;;;;;0.33;0.33;;;;;;;4.95;100.00;99615.13;4823462;29;20261;-80
2022/01/28 00:06:44;;;;;;;0.20;0.20;;;;;;;4.89;100.00;99630.00;4824238;29;20253;-80
2022/01/28 00:09:11;;;;;;;0.20;0.20;;;;;;;4.82;100.00;99629.06;4823410;29;20300;-80
2022/01/28 00:11:37;;;;;;;0.40;0.20;;;;;;;4.92;100.00;99644.72;4824002;29;20466;-80
2022/01/28 00:14:24;;;;;;;0.40;0.30;;;;;;;4.81;100.00;99636.19;4823841;29;20605;-80
2022/01/28 00:38:28;;;;;;;0.40;0.40;;;;;;;5.38;100.00;99693.97;4823161;29;20689;-80
2022/01/28 00:40:55;;;;;;;0.40;0.40;;;;;;;5.40;100.00;99704.44;4823576;29;20218;-80
2022/01/28 00:43:22;;;;;;;0.30;0.30;;;;;;;5.49;100.00;99685.56;4823467;29;20293;-80
2022/01/28 00:45:49;;;;;;;0.40;0.40;;;;;;;5.48;100.00;99699.00;4823433;29;20204;-80
2022/01/28 00:48:15;;;;;;;0.40;0.40;;;;;;;5.48;100.00;99691.88;4823321;29;20193;-80
2022/01/28 00:50:42;;;;;;;0.50;0.50;;;;;;;5.60;100.00;99693.03;4823238;29;20194;-80
2022/01/28 00:53:10;;;;;;;0.50;0.50;;;;;;;5.54;100.00;99685.00;4824637;29;20190;-79
2022/01/28 00:55:37;;;;;;;0.30;0.30;;;;;;;5.59;100.00;99711.84;4823331;29;20201;-80
2022/01/28 00:58:04;;;;;;;0.40;0.40;;;;;;;5.38;100.00;99683.34;4823425;29;20200;-80
2022/01/28 01:00:31;;;;;;;0.40;0.40;;;;;;;5.61;100.00;99701.81;4823089;29;20225;-80
2022/01/28 01:02:57;;;;;;;0.30;0.30;;;;;;;5.62;100.00;99699.00;4823313;29;20217;-80
2022/01/28 01:05:25;;;;;;;0.30;0.30;;;;;;;5.65;100.00;99716.38;4823119;29;20194;-80
2022/01/28 01:07:51;;;;;;;0.20;0.20;;;;;;;5.56;100.00;99698.91;4808318;29;20198;-80
2022/01/28 01:10:18;;;;;;;0.37;0.37;;;;;;;5.37;100.00;99713.59;4823042;29;20205;-80
2022/01/28 01:12:46;;;;;;;0.30;0.30;;;;;;;5.52;100.00;99714.41;4823348;29;20281;-79
2022/01/28 01:15:18;;;;;;;0.20;0.20;;;;;;;5.59;100.00;99730.44;4824174;29;20667;-80
2022/01/28 01:20:34;;;;;;;0.50;0.30;;;;;;;5.51;100.00;99715.41;4807809;29;20221;-80
2022/01/28 01:23:09;;;;;;;0.40;0.33;;;;;;;5.57;100.00;99729.78;4840045;29;20220;-78
2022/01/28 01:28:12;;;;;;;0.30;0.30;;;;;;;5.56;100.00;99728.97;4843674;29;20223;-80
2022/01/28 01:30:41;;;;;;;0.50;0.50;;;;;;;5.48;100.00;99734.38;4812495;29;20211;-80
2022/01/28 01:33:09;;;;;;;0.40;0.40;;;;;;;5.54;100.00;99752.25;4843275;29;20185;-80
2022/01/28 01:35:36;;;;;;;0.20;0.20;;;;;;;5.68;100.00;99748.78;4828970;29;20563;-80
2022/01/28 01:38:03;;;;;;;0.30;0.30;;;;;;;5.68;100.00;99759.41;4828895;29;20253;-80
2022/01/28 01:40:35;;;;;;;0.30;0.30;;;;;;;5.60;100.00;99750.69;4829179;29;20603;-80
2022/01/28 01:43:14;;;;;;;0.30;0.30;;;;;;;5.54;100.00;99759.41;4828777;29;20231;-80
2022/01/28 01:53:41;;;;;;;0.30;0.30;;;;;;;5.46;100.00;99756.84;4844332;29;20547;-80
2022/01/28 01:56:08;;;;;;;0.30;0.30;;;;;;;5.57;100.00;99754.53;4845216;29;20276;-80
2022/01/28 01:58:36;;;;;;;0.30;0.30;;;;;;;5.55;100.00;99759.19;4844176;29;20258;-80
2022/01/28 02:01:02;;;;;;;0.30;0.30;;;;;;;5.31;100.00;99751.53;4828480;29;20209;-80
2022/01/28 02:03:29;;;;;;;0.40;0.40;;;;;;;5.38;100.00;99736.50;4844197;29;20220;-80
2022/01/28 02:05:58;;;;;;;0.40;0.40;;;;;;;5.54;100.00;99762.06;4843764;29;20233;-78
2022/01/28 02:08:30;;;;;;;0.37;0.37;;;;;;;5.41;100.00;99754.75;4844764;29;20195;-78
2022/01/28 02:10:59;;;;;;;0.30;0.30;;;;;;;5.42;100.00;99731.63;4828379;29;20570;-78
2022/01/28 02:13:28;;;;;;;0.33;0.33;;;;;;;5.35;100.00;99730.72;4828338;29;20211;-78
2022/01/28 02:15:56;;;;;;;1.30;0.40;;;;;;;5.40;100.00;99739.81;4843716;29;20201;-80
2022/01/28 02:18:23;;;;;;;0.60;0.43;;;;;;;5.32;100.00;99722.09;4828581;29;20197;-81
2022/01/28 02:20:54;;;;;;;0.37;0.37;;;;;;;5.29;100.00;99729.63;4843499;29;20577;-80
2022/01/28 02:23:22;;;;;;;0.30;0.30;;;;;;;5.29;100.00;99738.41;4828226;29;20221;-80
2022/01/28 02:25:49;;;;;;;0.30;0.30;;;;;;;5.25;100.00;99753.06;4828332;29;20191;-80
2022/01/28 02:28:20;;;;;;;0.23;0.23;;;;;;;5.32;100.00;99738.03;4828181;29;20208;-80
2022/01/28 02:30:46;;;;;;;0.30;0.30;;;;;;;5.15;100.00;99741.88;4844440;29;20468;-80
2022/01/28 02:33:19;;;;;;;0.30;0.30;;;;;;;5.13;100.00;99732.47;4843335;29;20197;-80
2022/01/28 02:35:47;;;;;;;0.40;0.40;;;;;;;5.08;100.00;99733.03;4813602;29;20189;-78
2022/01/28 02:38:16;;;;;;;0.40;0.40;;;;;;;5.22;100.00;99736.69;4828297;29;20193;-80
2022/01/28 02:40:51;;;;;;;0.20;0.20;;;;;;;5.24;100.00;99732.00;4828106;29;20283;-79
2022/01/28 02:45:46;;;;;;;0.30;0.30;;;;;;;5.19;100.00;99700.66;4843086;29;20197;-80
2022/01/28 02:48:23;;;;;;;0.23;0.23;;;;;;;5.04;100.00;99699.03;4828072;29;20200;-80
2022/01/28 02:51:04;;;;;;;0.30;0.30;;;;;;;5.04;100.00;99721.09;4828015;29;20193;-79
2022/01/28 02:53:45;;;;;;;0.30;0.30;;;;;;;4.92;100.00;99722.53;4827742;29;20219;-80
2022/01/28 02:56:16;;;;;;;0.20;0.20;;;;;;;4.84;100.00;99741.22;4827994;29;20218;-80
2022/01/28 02:58:43;;;;;;;0.37;0.37;;;;;;;4.86;100.00;99733.88;4842914;29;20197;-80
2022/01/28 03:01:13;;;;;;;0.30;0.30;;;;;;;4.91;100.00;99746.59;4827628;29;20204;-80
2022/01/28 03:03:42;;;;;;;0.40;0.40;;;;;;;4.99;100.00;99738.59;4827824;29;20219;-80
2022/01/28 03:06:10;;;;;;;0.30;0.30;;;;;;;4.91;100.00;99759.88;4827806;29;20193;-79
2022/01/28 03:08:37;;;;;;;0.30;0.30;;;;;;;4.84;100.00;99751.84;4842706;29;20307;-79
2022/01/28 03:16:39;;;;;;;0.33;0.30;;;;;;;4.73;100.00;99763.69;4842710;29;20181;-80
2022/01/28 03:19:16;;;;;;;0.43;0.43;;;;;;;4.68;100.00;99751.97;4812415;29;20208;-80
2022/01/28 03:21:53;;;;;;;0.40;0.40;;;;;;;4.65;100.00;99752.31;4843519;29;20222;-79
2022/01/28 03:24:24;;;;;;;0.30;0.30;;;;;;;4.50;100.00;99759.41;4842520;29;20212;-79
2022/01/28 03:26:55;;;;;;;0.40;0.40;;;;;;;4.46;100.00;99756.28;4842427;29;20193;-80
2022/01/28 03:29:22;;;;;;;0.40;0.40;;;;;;;4.28;100.00;99759.25;4827234;29;20254;-80
2022/01/28 03:31:49;;;;;;;0.47;0.47;;;;;;;4.27;100.00;99770.84;4827216;29;20521;-79
2022/01/28 03:34:15;;;;;;;0.50;0.50;;;;;;;4.40;100.00;99773.72;4842354;29;20284;-77
2022/01/28 03:36:42;;;;;;;0.60;0.60;;;;;;;4.40;100.00;99768.44;4842279;29;20192;-79
2022/01/28 03:39:10;;;;;;;0.60;0.60;;;;;;;4.25;100.00;99772.81;4847443;29;20239;-77
2022/01/28 03:41:37;;;;;;;0.60;0.60;;;;;;;4.23;100.00;99766.91;4857359;29;20509;-79
2022/01/28 03:44:05;;;;;;;0.50;0.50;;;;;;;4.10;100.00;99769.31;4841651;29;20221;-79
2022/01/28 03:46:32;;;;;;;0.77;0.77;;;;;;;4.18;100.00;99763.09;4857364;29;20204;-80
2022/01/28 03:48:59;;;;;;;1.10;0.87;;;;;;;4.16;100.00;99751.84;4842270;29;20276;-79
2022/01/28 03:51:26;;;;;;;0.80;0.80;;;;;;;4.28;100.00;99751.28;4856970;29;20193;-80
2022/01/28 03:53:53;;;;;;;0.70;0.70;;;;;;;4.14;100.00;99736.13;4842002;29;20534;-79
2022/01/28 03:56:20;;;;;;;0.80;0.80;;;;;;;4.08;100.00;99725.38;4857392;29;20283;-80
2022/01/28 03:58:46;;;;;;;1.10;0.97;;;;;;;4.17;100.00;99730.47;4857415;29;20193;-80
2022/01/28 04:01:21;;;;;;;1.50;0.90;;;;;;;4.17;100.00;99722.50;4857239;29;20193;-79
2022/01/28 04:11:55;;;;;;;1.03;0.80;;;;;;;4.20;100.00;99753.16;4843025;29;20188;-79
2022/01/28 04:19:33;;;;;;;1.13;1.03;;;;;;;4.28;100.00;99727.41;4857226;29;20252;-80
2022/01/28 04:22:00;;;;;;;1.20;1.10;;;;;;;4.44;100.00;99743.19;4841661;29;20245;-79
2022/01/28 04:24:27;;;;;;;0.90;0.90;;;;;;;4.41;100.00;99714.38;4857020;29;20295;-79
2022/01/28 04:26:53;;;;;;;1.07;1.00;;;;;;;4.35;100.00;99724.84;4856974;29;20201;-79
2022/01/28 04:29:20;;;;;;;1.10;1.00;;;;;;;4.25;100.00;99719.78;4857162;29;20205;-79
2022/01/28 04:31:48;;;;;;;0.90;0.90;;;;;;;4.47;100.00;99714.66;4856960;29;20193;-79
2022/01/28 04:34:16;;;;;;;1.23;0.80;;;;;;;4.51;100.00;99711.47;4857065;29;20208;-79
2022/01/28 04:47:24;;;;;;;1.40;0.90;;;;;;;4.34;100.00;99721.38;4856177;29;20188;-79
2022/01/28 04:50:01;;;;;;;1.10;0.90;;;;;;;4.37;100.00;99722.88;4855600;29;20209;-79
2022/01/28 05:24:18;;;;;;;1.20;1.10;;;;;;;4.39;100.00;99760.63;4792014;29;20798;-79
2022/01/28 05:27:01;;;;;;;0.97;0.97;;;;;;;4.25;100.00;99741.00;4804479;29;20706;-80
2022/01/28 05:29:28;;;;;;;1.80;1.30;;;;;;;4.30;100.00;99759.03;4832591;29;20420;-80
2022/01/28 05:31:56;;;;;;;2.30;1.40;;;;;;;4.39;100.00;99760.63;4847847;29;20202;-79
2022/01/28 05:34:25;;;;;;;1.83;1.43;;;;;;;4.44;100.00;99772.38;4862905;29;20192;-79
2022/01/28 05:36:52;;;;;;;1.63;1.53;;;;;;;4.43;100.00;99776.03;4832385;29;20249;-79
2022/01/28 05:39:19;;;;;;;1.60;1.50;;;;;;;4.47;100.00;99770.38;4862654;29;20324;-79
2022/01/28 05:41:46;;;;;;;1.77;1.60;;;;;;;4.33;100.00;99764.84;4862769;29;20207;-79
2022/01/28 05:44:13;;;;;;;2.47;1.80;;;;;;;4.41;100.00;99748.88;4862705;29;20212;-80
2022/01/28 05:46:40;;;;;;;2.40;1.80;;;;;;;4.30;100.00;99751.09;4862779;29;20192;-79
2022/01/28 05:49:07;;;;;;;2.03;1.70;;;;;;;4.41;100.00;99763.94;4862675;29;20194;-79
2022/01/28 05:51:33;;;;;;;1.83;1.73;;;;;;;4.34;100.00;99761.16;4862537;29;20283;-79
2022/01/28 05:54:00;;;;;;;1.70;1.60;;;;;;;4.35;100.00;99768.13;4862441;29;20193;-79
2022/01/28 05:56:27;;;;;;;1.67;1.50;;;;;;;4.43;100.00;99768.06;4862680;29;20192;-79
2022/01/28 05:58:55;;;;;;;2.10;1.80;;;;;;;4.36;100.00;99768.94;4847140;29;20577;-80
2022/01/28 06:01:22;;;;;;;1.83;1.63;;;;;;;4.36;100.00;99748.56;4862458;29;20197;-79
2022/01/28 06:03:49;;;;;;;2.27;1.50;;;;;;;4.38;100.00;99757.19;4862668;29;20188;-80
2022/01/28 06:06:22;;;;;;;1.60;1.50;;;;;;;4.31;100.00;99769.47;4846799;29;20200;-79
2022/01/28 06:08:53;;;;;;;1.87;1.70;;;;;;;4.44;100.00;99782.97;4862048;29;20538;-79
2022/01/28 06:11:21;;;;;;;1.90;1.77;;;;;;;4.38;100.00;99777.56;4846945;29;20585;-79
2022/01/28 06:13:48;;;;;;;1.90;1.70;;;;;;;4.40;100.00;99776.38;4862255;29;20200;-80
2022/01/28 06:16:16;;;;;;;1.70;1.60;;;;;;;4.33;100.00;99775.44;4862173;29;20263;-79
2022/01/28 06:18:44;;;;;;;1.33;1.23;;;;;;;4.39;100.00;99763.28;4862170;29;20184;-79
2022/01/28 06:21:11;;;;;;;1.70;1.60;;;;;;;4.35;100.00;99789.34;4862006;29;20196;-79
2022/01/28 06:23:38;;;;;;;1.50;1.40;;;;;;;4.48;100.00;99793.25;4846836;29;20203;-79
2022/01/28 06:26:05;;;;;;;2.30;1.37;;;;;;;4.42;100.00;99805.41;4846633;29;20244;-79
2022/01/28 06:28:32;;;;;;;2.90;1.33;;;;;;;4.39;100.00;99801.25;4831630;29;20192;-79
2022/01/28 06:30:59;;;;;;;1.40;1.30;;;;;;;4.41;100.00;99819.66;4831514;29;20658;-79
2022/01/28 06:33:26;;;;;;;1.87;1.20;;;;;;;4.40;100.00;99828.63;4861814;29;20612;-79
2022/01/28 06:35:53;;;;;;;1.30;1.20;;;;;;;4.46;100.00;99843.00;4846216;29;20597;-79
2022/01/28 06:38:20;;;;;;;1.60;1.30;;;;;;;4.34;100.00;99830.13;4861760;29;20196;-79
2022/01/28 06:40:49;;;;;;;1.20;1.03;;;;;;;4.27;100.00;99833.66;4846249;29;20716;-80
2022/01/28 06:43:16;;;;;;;1.50;1.27;;;;;;;4.42;100.00;99855.81;4861804;29;20376;-79
2022/01/28 06:45:43;;;;;;;1.20;0.93;;;;;;;4.36;100.00;99848.53;4861807;29;20212;-79
2022/01/28 06:48:11;;;;;;;1.30;1.20;;;;;;;4.40;100.00;99865.75;4861682;29;20189;-80
2022/01/28 06:50:39;;;;;;;1.50;1.40;;;;;;;4.26;100.00;99855.88;4831098;29;20208;-79
2022/01/28 06:53:07;;;;;;;2.63;1.83;;;;;;;4.26;100.00;99875.28;4861601;29;20212;-79
2022/01/28 06:55:34;;;;;;;2.37;2.17;;;;;;;4.12;100.00;99881.31;4831253;29;20227;-79
2022/01/28 06:58:03;;;;;;;2.00;1.90;;;;;;;4.05;100.00;99863.63;4846012;29;20207;-79
2022/01/28 07:00:37;;;;;;;2.00;1.80;;;;;;;4.00;100.00;99882.69;4861250;29;20196;-79
2022/01/28 07:03:04;;;;;;;1.70;1.60;;;;;;;4.16;100.00;99872.00;4861489;29;20194;-80
2022/01/28 07:05:32;;;;;;;2.77;2.10;;;;;;;4.05;100.00;99880.34;4845593;29;20212;-79
2022/01/28 07:07:59;;;;;;;2.30;2.10;;;;;;;3.97;100.00;99873.22;4861546;29;20567;-79
2022/01/28 07:10:25;;;;;;;2.40;2.03;;;;;;;4.02;100.00;99878.03;4860982;29;20279;-80
2022/01/28 07:12:54;;;;;;;2.30;2.10;;;;;;;4.12;100.00;99881.31;4861242;29;20291;-79
2022/01/28 07:15:24;;;;;;;2.10;2.00;;;;;;;4.19;100.00;99858.41;4830650;29;20202;-79
2022/01/28 07:17:52;;;;;;;2.23;2.03;;;;;;;4.31;100.00;99858.84;4861204;29;20291;-79
2022/01/28 07:20:24;;;;;;;2.63;2.10;;;;;;;4.28;100.00;99865.34;4845790;29;20184;-80
2022/01/28 07:22:50;;;;;;;2.00;1.80;;;;;;;4.11;100.00;99868.22;4861231;29;20480;-79
2022/01/28 07:25:17;;;;;;;2.07;1.87;;;;;;;3.93;100.00;99855.19;4861785;29;20552;-80
2022/01/28 07:27:43;;;;;;;2.63;2.30;;;;;;;4.03;100.00;99857.63;4845651;29;20196;-79
2022/01/28 07:30:11;;;;;;;3.97;2.60;;;;;;;3.99;100.00;99894.28;4860976;29;20565;-79
2022/01/28 07:32:38;;;;;;;3.00;2.40;;;;;;;4.02;100.00;99879.84;4845582;29;20192;-79
2022/01/28 07:35:10;;;;;;;3.27;2.57;;;;;;;4.04;100.00;99873.38;4861895;29;20220;-79
2022/01/28 07:37:37;;;;;;;2.90;2.23;;;;;;;4.06;100.00;99897.88;4861838;29;20661;-79
2022/01/28 07:40:05;;;;;;;3.17;2.20;;;;;;;4.12;100.00;99893.72;4845426;29;20715;-79
2022/01/28 07:42:36;;;;;;;3.00;2.10;;;;;;;4.10;100.00;99887.78;4860778;29;20256;-79
2022/01/28 07:45:06;;;;;;;2.50;2.30;;;;;;;4.21;100.00;99888.22;4845536;29;20200;-80
2022/01/28 07:47:36;;;;;;;3.03;2.50;;;;;;;4.20;100.00;99888.41;4848908;29;20205;-79
2022/01/28 07:50:08;;;;;;;2.73;2.30;;;;;;;4.36;100.00;99909.53;4843031;29;20621;-80
2022/01/28 07:52:35;;;;;;;2.40;2.20;;;;;;;4.44;100.00;99920.94;4811720;29;20192;-79
2022/01/28 07:55:04;;;;;;;2.43;1.97;;;;;;;4.51;100.00;99920.25;4826910;29;20235;-80
2022/01/28 07:57:31;;;;;;;2.33;2.13;;;;;;;4.56;100.00;99929.34;4842360;29;20189;-80
2022/01/28 07:59:58;;;;;;;2.67;2.30;;;;;;;4.59;100.00;99931.66;4826951;29;20467;-79
2022/01/28 08:02:27;;;;;;;2.80;1.73;;;;;;;4.72;100.00;99947.00;4841878;29;20201;-80
2022/01/28 08:04:54;;;;;;;1.50;1.33;;;;;;;4.69;100.00;99937.56;4815357;29;20266;-79
2022/01/28 08:07:22;;;;;;;1.70;1.30;;;;;;;4.70;100.00;99935.75;4823716;29;20213;-79
2022/01/28 08:09:49;;;;;;;2.00;1.37;;;;;;;4.75;100.00;99938.72;4808813;29;20651;-80
2022/01/28 08:12:16;;;;;;;2.33;1.30;;;;;;;4.75;100.00;99949.34;4824679;29;20198;-80
2022/01/28 08:14:43;;;;;;;1.53;1.30;;;;;;;4.86;100.00;99957.72;4809284;29;20373;-80
2022/01/28 08:17:11;;;;;;;2.00;1.17;;;;;;;5.05;100.00;99959.09;4823659;29;20273;-80
2022/01/28 08:19:38;;;;;;;1.37;1.27;;;;;;;4.98;100.00;99939.56;4823951;29;20198;-80
2022/01/28 08:22:05;;;;;;;1.17;1.07;;;;;;;5.23;98.96;99959.63;4836405;29;20216;-81
2022/01/28 08:24:32;;;;;;;1.20;0.97;;;;;;;5.39;96.42;99982.59;4841727;29;20213;-81
2022/01/28 08:26:59;;;;;;;1.63;1.20;;;;;;;5.41;96.95;99980.59;4841645;29;20201;-80
2022/01/28 08:29:25;;;;;;;1.50;1.10;;;;;;;5.47;96.45;99990.50;4841870;29;20185;-79
2022/01/28 08:31:52;;;;;;;1.83;1.07;;;;;;;5.42;98.22;99998.19;4844882;29;20193;-80
2022/01/28 08:34:19;;;;;;;1.53;1.00;;;;;;;5.23;99.26;99988.00;4830135;29;20211;-79
2022/01/28 08:36:46;;;;;;;0.97;0.83;;;;;;;5.38;96.17;99988.91;4846512;29;20205;-79
2022/01/28 08:39:14;;;;;;;2.10;1.10;;;;;;;5.44;95.59;100013.94;4846181;29;20264;-80
2022/01/28 08:41:42;;;;;;;1.90;1.20;;;;;;;5.33;95.89;99997.41;4845305;29;20208;-79
2022/01/28 08:44:14;;;;;;;1.47;1.03;;;;;;;5.49;95.31;100009.78;4845343;29;20193;-79
2022/01/28 08:46:41;;;;;;;1.57;1.10;;;;;;;5.64;94.62;100007.16;4844998;29;20241;-79
2022/01/28 08:49:08;;;;;;;1.33;1.00;;;;;;;5.67;93.65;100023.56;4829855;29;20288;-80
2022/01/28 08:51:37;;;;;;;2.53;1.03;;;;;;;5.81;93.49;100023.78;4842518;29;20253;-80
2022/01/28 08:54:04;;;;;;;3.33;1.00;;;;;;;5.65;92.72;100014.09;4845108;29;20261;-80
2022/01/28 08:56:31;;;;;;;1.83;0.90;;;;;;;5.64;93.51;100021.28;4844516;29;20578;-80
2022/01/28 08:58:57;;;;;;;1.50;0.90;;;;;;;5.79;91.23;100029.28;4844846;29;20193;-80
2022/01/28 09:01:24;;;;;;;2.13;1.00;;;;;;;5.81;90.08;100021.97;4845007;29;20956;-80
2022/01/28 09:03:52;;;;;;;1.17;1.00;;;;;;;5.74;91.25;100024.50;4845018;29;20208;-80
2022/01/28 09:06:19;;;;;;;0.80;0.80;;;;;;;6.06;87.42;100063.34;4829389;29;20230;-79
2022/01/28 09:08:47;;;;;;;1.37;0.87;;;;;;;6.00;87.96;100050.75;4844782;29;20197;-80
2022/01/28 09:13:52;;;;;;;1.00;0.90;;;;;;;6.17;88.09;100062.06;4837738;29;20264;-81
2022/01/28 09:16:29;;;;;;;0.90;0.80;;;;;;;6.26;87.62;100073.44;4919741;23;20249;-80
2022/01/28 09:18:56;;;;;;;1.83;1.03;;;;;;;6.38;86.27;100091.47;4903047;23;20369;-81
2022/01/28 09:21:23;;;;;;;0.80;0.80;;;;;;;6.25;86.58;100080.63;4903741;23;20578;-81
2022/01/28 09:23:53;;;;;;;1.03;0.90;;;;;;;6.29;87.92;100097.06;4900531;29;20202;-80
2022/01/28 09:26:25;;;;;;;1.10;0.83;;;;;;;6.31;87.34;100103.84;4915379;29;20198;-79
2022/01/28 09:28:53;;;;;;;1.33;0.80;;;;;;;6.25;87.88;100098.44;4930542;29;20223;-81
2022/01/28 09:31:22;;;;;;;3.10;1.03;;;;;;;6.24;89.35;100102.91;4913290;29;20250;-81
2022/01/28 09:33:51;;;;;;;0.97;0.83;;;;;;;6.19;88.45;100098.13;4931227;29;20206;-81
2022/01/28 09:36:19;;;;;;;1.40;1.10;;;;;;;6.39;88.15;100111.72;4915894;29;20182;-81
2022/01/28 09:38:55;;;;;;;1.50;1.00;;;;;;;6.47;87.62;100108.19;4932124;29;20230;-81
2022/01/28 09:41:24;;;;;;;2.60;1.10;;;;;;;6.39;86.86;100092.31;4915901;29;20206;-81
2022/01/28 09:43:54;;;;;;;1.10;0.80;;;;;;;6.36;84.17;100103.28;4901678;29;20219;-81
2022/01/28 09:46:22;;;;;;;2.00;1.13;;;;;;;6.15;88.54;100088.88;4919032;29;20221;-81
2022/01/28 09:48:49;;;;;;;2.50;1.00;;;;;;;6.17;91.33;100107.28;4901909;23;20267;-81
2022/01/28 09:51:17;;;;;;;1.93;0.90;;;;;;;6.12;89.71;100107.00;4879012;29;20214;-81
2022/01/28 09:54:02;;;;;;;2.00;0.70;;;;;;;4.96;100.00;100131.91;4894771;29;20223;-81
2022/01/28 09:56:35;;;;;;;1.33;1.07;;;;;;;4.68;100.00;100121.72;4902869;23;20227;-80
2022/01/28 09:59:29;;;;;;;1.67;0.90;;;;;;;4.81;100.00;100115.84;4920622;23;20465;31
2022/01/28 10:01:59;;;;;;;1.00;0.87;;;;;;;5.01;100.00;100095.06;4859149;29;20239;-81
2022/01/28 10:04:27;;;;;;;1.03;0.93;;;;;;;5.24;100.00;100091.47;4877439;29;20652;-80
2022/01/28 10:06:56;;;;;;;1.53;0.90;;;;;;;5.67;100.00;100083.88;4893975;29;20228;-81
2022/01/28 10:09:28;;;;;;;1.63;0.73;;;;;;;5.87;98.79;100060.34;4893925;29;20244;-80
2022/01/28 10:12:18;;;;;;;2.20;0.97;;;;;;;5.96;100.00;100051.28;4877325;29;20271;-80
2022/01/28 10:15:05;;;;;;;2.73;1.00;;;;;;;6.36;89.75;100061.53;4877360;29;20195;-81
2022/01/28 10:17:52;;;;;;;1.33;0.73;;;;;;;6.43;88.33;100043.03;4893566;29;20239;-81
2022/01/28 10:20:28;;;;;;;2.33;0.90;;;;;;;6.51;88.28;100038.44;4878773;29;20182;-80
2022/01/28 10:23:01;;;;;;;1.93;0.97;;;;;;;6.62;91.04;100067.25;4914739;23;20251;-80
2022/01/28 10:25:34;;;;;;;2.50;1.00;;;;;;;6.53;86.98;100036.38;4931393;29;20197;-81
2022/01/28 10:28:14;;;;;;;1.00;0.80;;;;;;;6.69;84.54;100039.88;4930789;29;20214;-81
2022/01/28 10:30:48;;;;;;;2.63;0.87;;;;;;;6.58;85.75;100026.03;4910386;29;20613;-80
2022/01/28 10:33:22;;;;;;;1.10;0.87;;;;;;;6.69;80.15;100026.56;4919214;29;20190;-80
2022/01/28 10:35:55;;;;;;;1.20;0.80;;;;;;;6.75;82.31;100021.34;4902663;29;20265;-80
2022/01/28 10:38:37;;;;;;;2.20;0.93;;;;;;;6.87;81.14;100025.16;4871497;29;20198;-80
2022/01/28 10:41:12;;;;;;;1.13;0.80;;;;;;;6.85;79.42;100024.56;4886652;29;20198;-79
2022/01/28 10:43:48;;;;;;;2.23;0.80;;;;;;;6.97;81.53;100017.72;4902093;29;20590;-80
2022/01/28 10:46:21;;;;;;;1.83;0.80;;;;;;;7.11;78.87;100029.34;4901982;29;20526;-79
2022/01/28 10:48:54;;;;;;;0.80;0.80;;;;;;;7.20;76.22;100030.91;4902938;29;20182;-80
2022/01/28 10:51:38;;;;;;;1.87;1.03;;;;;;;7.44;77.27;100049.22;4886629;29;20194;-80
2022/01/28 10:54:21;;;;;;;1.70;1.00;;;;;;;7.33;77.57;100051.53;4888673;29;20187;-79
2022/01/28 10:57:02;;;;;;;3.10;1.00;;;;;;;7.36;76.25;100043.16;4886342;29;20250;-80
2022/01/28 10:59:38;;;;;;;1.77;1.17;;;;;;;7.29;78.65;100045.75;4902129;29;20194;-80
2022/01/28 11:02:06;;;;;;;2.30;1.20;;;;;;;7.28;80.50;100033.44;4901720;29;20194;-79
2022/01/28 11:04:33;;;;;;;1.43;1.20;;;;;;;7.52;78.01;100045.59;4901726;29;20269;-80
2022/01/28 11:07:02;;;;;;;1.57;0.87;;;;;;;7.44;77.64;100041.22;4901732;29;20213;-80
2022/01/28 11:09:30;;;;;;;1.10;1.00;;;;;;;7.39;79.68;100037.44;4917525;29;20190;-79
2022/01/28 11:11:58;;;;;;;1.60;1.13;;;;;;;7.36;80.48;100036.00;4886133;29;20202;-80
2022/01/28 11:14:25;;;;;;;1.10;0.90;;;;;;;7.40;80.15;100023.94;4886188;29;20608;-79
2022/01/28 11:16:52;;;;;;;1.33;0.90;;;;;;;7.58;77.94;100031.50;4885557;29;20195;-80
2022/01/28 11:19:22;;;;;;;1.77;1.17;;;;;;;7.79;78.78;100034.16;4901730;29;20222;-80
2022/01/28 11:22:04;;;;;;;1.80;1.10;;;;;;;7.92;77.94;100028.13;4885992;29;20210;-80
2022/01/28 11:25:06;;;;;;;2.37;0.90;;;;;;;7.83;77.22;100030.09;4918409;29;20229;-79
2022/01/28 11:27:36;;;;;;;2.63;1.10;;;;;;;7.58;79.00;100028.00;4864013;29;20194;-79
2022/01/28 11:30:15;;;;;;;1.13;0.90;;;;;;;7.50;74.39;100028.97;4870365;29;20662;-79
2022/01/28 11:33:00;;;;;;;4.17;0.90;;;;;;;7.55;75.00;100026.56;4900614;29;20170;-80
2022/01/28 11:35:33;;;;;;;1.43;0.90;;;;;;;7.27;75.30;100023.81;4917887;29;20198;-79
2022/01/28 11:38:04;;;;;;;1.03;0.90;;;;;;;7.25;77.26;100019.66;4885933;29;20231;-80
2022/01/28 11:40:43;;;;;;;1.10;1.00;;;;;;;6.92;74.90;100035.25;4885969;29;20206;-80
2022/01/28 11:43:18;;;;;;;1.20;1.10;;;;;;;6.77;78.21;100019.31;4901290;29;20550;-80
2022/01/28 11:45:45;;;;;;;1.57;0.83;;;;;;;6.84;79.92;100041.53;4901335;29;20237;-80
2022/01/28 11:48:12;;;;;;;1.33;0.90;;;;;;;7.03;81.03;100035.63;4885731;29;20560;-80
2022/01/28 11:50:50;;;;;;;1.17;1.00;;;;;;;7.30;81.36;100044.75;4870247;29;20275;-77
2022/01/28 11:53:21;;;;;;;3.17;1.20;;;;;;;7.30;79.83;100028.75;4885740;29;20242;-79
2022/01/28 11:56:01;;;;;;;2.67;1.10;;;;;;;7.44;80.36;100030.53;4917658;29;20213;-80
2022/01/28 11:58:54;;;;;;;2.23;1.37;;;;;;;7.33;79.77;100035.53;4901439;29;20262;-80
2022/01/28 12:01:26;;;;;;;1.67;1.00;;;;;;;7.33;79.27;100041.69;4885913;29;20193;-80
2022/01/28 12:04:29;;;;;;;1.77;0.90;;;;;;;7.16;81.85;100020.78;4885287;29;20550;-79
2022/01/28 12:06:59;;;;;;;1.53;0.90;;;;;;;7.05;82.59;100030.94;4900659;29;20220;-79
2022/01/28 12:09:28;;;;;;;2.83;1.20;;;;;;;6.98;83.24;100011.38;4885609;29;20607;-79
2022/01/28 12:11:55;;;;;;;2.27;1.10;;;;;;;6.99;80.57;100029.03;4900738;29;20190;-80
2022/01/28 12:14:56;;;;;;;1.33;1.03;;;;;;;7.27;78.04;100010.47;4885547;29;20265;-79
2022/01/28 12:17:30;;;;;;;1.93;0.90;;;;;;;7.22;78.64;100020.88;4917420;29;20570;-80
2022/01/28 12:20:15;;;;;;;2.07;1.00;;;;;;;7.29;78.54;100043.09;4901056;29;20194;-80
2022/01/28 12:23:11;;;;;;;1.17;0.90;;;;;;;7.45;78.47;100037.53;4900702;29;20287;-80
2022/01/28 12:25:40;;;;;;;1.77;1.00;;;;;;;7.44;79.16;100021.72;4900340;29;20265;-80
2022/01/28 12:28:33;;;;;;;2.17;1.10;;;;;;;7.21;79.97;100032.56;4900488;29;20511;-80
2022/01/28 12:31:06;;;;;;;0.80;0.80;;;;;;;7.05;80.38;100025.59;4900747;29;20634;-80
2022/01/28 12:33:38;;;;;;;1.53;1.10;;;;;;;6.71;82.60;100020.06;4901126;29;20186;-79
2022/01/28 12:36:10;;;;;;;3.63;1.30;;;;;;;6.43;84.11;100009.25;4885264;29;20210;-80
2022/01/28 12:38:44;;;;;;;1.23;1.10;;;;;;;6.75;84.59;100018.69;4886065;29;20220;-80
2022/01/28 12:41:16;;;;;;;1.50;1.10;;;;;;;6.68;84.64;100024.91;4900712;29;20182;-79
2022/01/28 12:43:44;;;;;;;2.60;1.07;;;;;;;6.63;82.19;100034.28;4885508;29;20175;-80
2022/01/28 12:46:15;;;;;;;1.83;1.10;;;;;;;6.53;83.05;100028.41;4900545;29;20285;-80
2022/01/28 12:48:54;;;;;;;1.50;1.00;;;;;;;6.48;82.18;100030.00;4917234;29;20242;-79
2022/01/28 12:51:23;;;;;;;4.20;1.10;;;;;;;6.56;82.83;100036.03;4900628;29;20202;-80
2022/01/28 12:53:57;;;;;;;2.00;1.00;;;;;;;6.57;83.83;100060.84;4884867;29;20250;-80
2022/01/28 12:56:31;;;;;;;1.17;0.90;;;;;;;6.63;84.78;100047.59;4885327;29;20190;-80
2022/01/28 12:59:00;;;;;;;2.00;1.30;;;;;;;6.72;84.29;100055.50;4900292;29;20625;-80
2022/01/28 13:01:27;;;;;;;1.27;1.10;;;;;;;6.68;83.00;100067.50;4900519;29;20563;-80
2022/01/28 13:04:11;;;;;;;1.67;1.07;;;;;;;6.80;84.42;100072.22;4900738;29;20187;-79
2022/01/28 13:06:54;;;;;;;2.27;1.10;;;;;;;6.87;83.60;100089.09;4885118;29;20214;-80
2022/01/28 13:09:23;;;;;;;1.83;1.10;;;;;;;6.76;84.43;100062.94;4886529;29;20191;-80
2022/01/28 13:11:56;;;;;;;2.50;1.20;;;;;;;6.94;83.76;100081.22;4884888;29;20201;-79
2022/01/28 13:14:26;;;;;;;2.67;1.30;;;;;;;6.80;83.07;100087.38;4900411;29;20196;-80
2022/01/28 13:16:54;;;;;;;1.33;1.00;;;;;;;6.57;82.92;100067.00;4916928;29;20222;-80
2022/01/28 13:19:21;;;;;;;1.73;1.07;;;;;;;6.53;83.51;100076.31;4888449;29;20202;-79
2022/01/28 13:21:49;;;;;;;1.27;0.70;;;;;;;6.52;82.62;100057.91;4888139;29;20498;-79
2022/01/28 13:24:19;;;;;;;2.07;0.93;;;;;;;6.45;78.94;100060.44;4888053;29;20237;-80
2022/01/28 13:26:57;;;;;;;1.80;1.03;;;;;;;6.58;80.19;100054.47;4888123;29;20207;-80
2022/01/28 13:29:32;;;;;;;3.10;1.10;;;;;;;6.40;81.73;100064.66;4920335;29;20191;-80
2022/01/28 13:32:01;;;;;;;2.37;1.00;;;;;;;6.37;80.32;100070.34;4903562;29;20196;-80